Time;durP1;ratioP1;P1;durP2;ratioP2;P2;SDS_P1;SDS_P2;PMS_P1;PMS_P2;Temp;Humidity;BMP_temperature;BMP_pressure;BME280_temperature;BME280_humidity;BME280_pressure;Samples;Min_cycle;Max_cycle;Signal;HPM_P1;HPM_P2
2023/04/24 00:02:03;;;;;;;1.23;1.10;;;10.80;99.90;;;10.38;96.28;96913.78;5049072;28;20456;-77
2023/04/24 00:04:31;;;;;;;1.67;1.57;;;10.80;99.90;;;10.38;95.53;96916.47;5046901;28;20482;-77
2023/04/24 00:06:59;;;;;;;2.17;1.80;;;10.80;99.90;;;10.33;95.70;96924.50;5053641;28;20461;-79
2023/04/24 00:09:27;;;;;;;1.53;1.43;;;10.80;99.90;;;10.20;96.33;96921.00;5048309;28;20484;-79
2023/04/24 00:11:55;;;;;;;1.43;1.33;;;10.70;99.90;;;10.19;96.51;96913.97;5054152;28;20454;-75
2023/04/24 00:14:23;;;;;;;1.83;1.37;;;10.70;99.90;;;10.15;96.75;96915.53;5039497;28;20477;-79
2023/04/24 00:16:50;;;;;;;1.47;1.37;;;10.60;99.90;;;10.21;96.94;96914.56;5049991;28;20530;-78
2023/04/24 00:19:21;;;;;;;1.90;1.57;;;10.60;99.90;;;10.20;97.02;96912.91;5047769;28;20484;-80
2023/04/24 00:21:49;;;;;;;1.30;1.20;;;10.60;99.90;;;10.24;97.28;96912.47;5057466;28;21954;-80
2023/04/24 00:24:17;;;;;;;1.53;1.27;;;10.60;99.90;;;10.30;96.61;96906.09;5075816;28;20469;-79
2023/04/24 00:26:44;;;;;;;1.80;1.30;;;10.70;99.90;;;10.23;97.00;96910.78;5050042;28;20461;-78
2023/04/24 00:29:13;;;;;;;2.50;1.77;;;10.60;99.90;;;10.33;97.03;96928.03;5074753;28;20531;-78
2023/04/24 00:31:40;;;;;;;1.30;1.20;;;10.70;99.90;;;10.28;96.90;96921.72;5049636;28;20457;-79
2023/04/24 00:34:07;;;;;;;1.40;1.30;;;10.70;99.90;;;10.26;96.70;96926.53;5044510;28;20492;-76
2023/04/24 00:36:35;;;;;;;1.40;1.23;;;10.60;99.90;;;10.19;96.93;96923.97;5101893;28;20459;-74
2023/04/24 00:39:02;;;;;;;1.80;1.60;;;10.60;99.90;;;10.19;96.93;96919.38;5062928;28;20483;-74
2023/04/24 00:41:29;;;;;;;1.37;1.27;;;10.60;99.90;;;10.09;96.60;96915.66;5070280;28;20444;-73
2023/04/24 00:43:57;;;;;;;1.33;1.23;;;10.60;99.90;;;10.16;96.11;96914.47;5073946;28;20441;-76
2023/04/24 00:46:25;;;;;;;1.50;1.40;;;10.50;99.90;;;10.24;96.89;96912.47;5067517;28;20520;-73
2023/04/24 00:48:53;;;;;;;2.00;1.80;;;10.50;99.90;;;10.27;96.83;96901.97;5056943;28;20468;-77
2023/04/24 00:51:20;;;;;;;1.10;1.00;;;10.60;99.90;;;9.94;96.60;96859.53;5068707;28;20472;-75
2023/04/24 00:53:48;;;;;;;1.63;1.53;;;10.50;99.90;;;10.06;96.97;96889.97;5066387;28;20492;-74
2023/04/24 00:56:15;;;;;;;1.40;1.27;;;10.40;99.90;;;9.97;97.29;96888.72;5061508;28;20454;-80
2023/04/24 00:58:43;;;;;;;1.73;1.63;;;10.40;99.90;;;10.06;96.31;96895.34;5055013;28;20476;-81
2023/04/24 01:01:11;;;;;;;1.40;1.30;;;10.40;99.90;;;10.13;96.54;96898.75;5048341;28;20495;-78
2023/04/24 01:03:41;;;;;;;2.00;1.60;;;10.40;99.90;;;10.19;96.51;96900.47;5050477;28;21004;-77
2023/04/24 01:06:11;;;;;;;1.47;1.37;;;10.40;99.90;;;10.16;96.08;96889.34;5047662;28;20796;-78
2023/04/24 01:08:39;;;;;;;2.73;1.53;;;10.50;99.90;;;10.06;96.52;96901.59;5068674;28;20529;-77
2023/04/24 01:11:06;;;;;;;1.67;1.57;;;10.40;99.90;;;10.09;95.40;96907.56;5044709;28;20449;-80
2023/04/24 01:13:35;;;;;;;2.40;1.87;;;10.40;99.90;;;10.17;96.04;96907.19;5046933;28;20450;-78
2023/04/24 01:16:02;;;;;;;2.00;1.53;;;10.50;99.90;;;10.15;94.57;96907.44;5048328;28;20457;-78
2023/04/24 01:18:30;;;;;;;2.07;1.67;;;10.50;99.90;;;10.19;93.72;96895.09;5050596;28;20469;-78
2023/04/24 01:21:00;;;;;;;2.50;1.30;;;10.50;99.90;;;9.97;92.61;96875.22;5043713;28;20774;-74
2023/04/24 01:23:29;;;;;;;1.33;1.23;;;10.50;99.90;;;10.06;93.38;96903.44;5037531;28;20507;-79
2023/04/24 01:25:56;;;;;;;1.33;1.10;;;10.50;99.90;;;10.05;92.49;96901.81;5042397;28;20442;-72
2023/04/24 01:28:24;;;;;;;1.10;1.00;;;10.50;99.90;;;10.08;91.28;96901.34;5045973;28;20470;-78
2023/04/24 01:30:51;;;;;;;1.20;1.10;;;10.40;99.90;;;10.07;91.30;96907.78;5050387;28;20534;-78
2023/04/24 01:33:20;;;;;;;0.90;0.87;;;10.40;99.90;;;10.16;90.63;96910.94;5048905;28;20445;-79
2023/04/24 01:35:48;;;;;;;1.07;0.90;;;10.50;99.90;;;10.14;90.86;96903.09;5051285;28;20446;-82
2023/04/24 01:38:15;;;;;;;0.73;0.73;;;10.50;99.90;;;9.81;89.49;96842.53;5045933;28;20446;-78
2023/04/24 01:40:43;;;;;;;0.90;0.70;;;10.60;99.60;;;10.20;89.64;96896.72;5070855;28;20537;-81
2023/04/24 01:43:10;;;;;;;1.23;1.13;;;10.60;99.90;;;10.28;87.72;96900.13;5062777;28;20466;-77
2023/04/24 01:45:37;;;;;;;0.90;0.90;;;10.60;99.80;;;10.26;88.03;96897.63;5048456;28;20526;-78
2023/04/24 01:48:05;;;;;;;2.47;0.97;;;10.60;99.30;;;10.29;88.50;96905.25;5052957;28;20482;-79
2023/04/24 01:50:32;;;;;;;2.30;0.80;;;10.60;99.40;;;10.20;88.62;96906.72;5048124;28;20515;-79
2023/04/24 01:52:59;;;;;;;0.93;0.90;;;10.60;99.00;;;10.26;88.26;96902.25;5045096;28;20449;-78
2023/04/24 01:55:27;;;;;;;1.10;0.93;;;10.70;98.80;;;10.42;87.77;96904.19;5059722;28;21415;-78
2023/04/24 01:57:57;;;;;;;1.63;0.90;;;10.70;98.00;;;10.37;87.09;96908.66;5061302;28;20475;-73
2023/04/24 02:00:25;;;;;;;0.80;0.80;;;10.70;97.60;;;10.40;87.45;96895.50;5065216;28;20482;-76
2023/04/24 02:02:52;;;;;;;0.90;0.83;;;10.70;98.20;;;10.08;88.04;96860.84;5065917;28;21033;-79
2023/04/24 02:05:19;;;;;;;0.73;0.70;;;10.70;98.30;;;10.31;87.89;96886.13;5048652;28;20461;-79
2023/04/24 02:07:47;;;;;;;0.70;0.70;;;10.60;99.20;;;10.11;87.37;96857.69;5046318;28;20476;-80
2023/04/24 02:10:14;;;;;;;0.90;0.70;;;10.60;97.90;;;10.32;87.85;96876.97;5040184;28;21022;-75
2023/04/24 02:12:41;;;;;;;0.80;0.80;;;10.70;98.30;;;10.34;87.17;96872.97;5051445;28;20449;-81
2023/04/24 02:15:11;;;;;;;1.07;0.70;;;10.70;97.50;;;10.42;86.93;96874.50;5037481;28;20443;-76
2023/04/24 02:17:38;;;;;;;0.70;0.67;;;10.70;97.70;;;9.98;85.61;96812.09;5041946;28;20457;-78
2023/04/24 02:20:08;;;;;;;0.77;0.60;;;10.70;95.90;;;10.33;85.74;96867.81;5064110;28;20468;-81
2023/04/24 02:22:35;;;;;;;2.70;0.90;;;10.70;95.90;;;10.30;86.17;96857.50;5047751;28;20521;-81
2023/04/24 02:25:02;;;;;;;0.63;0.60;;;10.60;96.60;;;10.28;86.61;96870.41;5055854;28;20486;-79
2023/04/24 02:27:30;;;;;;;0.77;0.70;;;10.60;96.60;;;10.23;86.44;96851.41;5050713;28;20480;-76
2023/04/24 02:29:57;;;;;;;1.37;0.90;;;10.60;96.70;;;10.27;85.92;96863.38;5048786;28;20454;-80
2023/04/24 02:32:26;;;;;;;1.20;1.03;;;10.60;96.50;;;10.30;85.98;96865.59;5078956;28;20483;-81
2023/04/24 02:34:53;;;;;;;0.97;0.57;;;10.50;96.00;;;10.19;85.65;96856.50;5051227;28;20461;-80
2023/04/24 02:37:21;;;;;;;0.87;0.77;;;10.50;96.30;;;9.94;85.75;96814.47;5056632;28;20840;-81
2023/04/24 02:39:49;;;;;;;0.80;0.53;;;10.50;96.40;;;10.28;85.36;96859.63;5047469;28;20484;-81
2023/04/24 02:42:16;;;;;;;0.97;0.90;;;10.50;96.20;;;10.18;85.68;96855.66;5053651;28;20445;-80
2023/04/24 02:44:44;;;;;;;0.93;0.70;;;10.50;96.00;;;10.20;85.41;96864.31;5034964;28;20454;-80
2023/04/24 02:47:12;;;;;;;1.03;0.93;;;10.50;95.70;;;10.12;86.28;96856.63;5045152;28;20480;-78
2023/04/24 02:49:40;;;;;;;0.97;0.80;;;10.60;95.80;;;10.23;84.88;96856.81;5031446;28;20473;-80
2023/04/24 02:52:07;;;;;;;0.83;0.80;;;10.60;95.00;;;10.31;84.77;96864.53;5045666;28;20453;-79
2023/04/24 02:54:35;;;;;;;0.73;0.70;;;10.60;95.00;;;10.32;85.00;96856.19;5046329;28;20461;-83
2023/04/24 02:57:02;;;;;;;0.90;0.70;;;10.60;95.50;;;10.23;85.20;96863.03;5049874;28;20454;-76
2023/04/24 02:59:29;;;;;;;1.00;0.90;;;10.60;94.90;;;10.27;85.35;96860.69;5050562;28;20825;-80
2023/04/24 03:01:57;;;;;;;0.80;0.80;;;10.60;95.60;;;10.24;84.85;96859.28;5045916;28;20469;-81
2023/04/24 03:04:24;;;;;;;0.90;0.87;;;10.60;95.20;;;10.09;85.53;96829.31;5041933;28;20563;-79
2023/04/24 03:06:56;;;;;;;1.10;0.93;;;10.60;95.50;;;10.30;85.00;96852.91;5040407;28;20453;-82
2023/04/24 03:09:23;;;;;;;0.97;0.70;;;10.60;95.70;;;10.44;84.49;96855.31;5041883;28;20461;-80
2023/04/24 03:11:51;;;;;;;1.33;0.97;;;10.70;95.70;;;10.43;85.63;96845.59;5048137;28;20521;-78
2023/04/24 03:14:18;;;;;;;1.57;1.37;;;10.70;95.90;;;10.43;85.81;96854.53;5045865;28;20461;-82
2023/04/24 03:16:45;;;;;;;1.37;1.23;;;10.70;96.90;;;10.48;84.75;96854.59;5046445;28;20465;-80
2023/04/24 03:19:13;;;;;;;2.37;1.27;;;10.70;96.10;;;10.47;85.38;96854.88;5047978;28;20519;-76
2023/04/24 03:21:41;;;;;;;1.77;1.67;;;10.70;96.80;;;10.39;85.21;96837.16;5042006;28;20531;-74
2023/04/24 03:24:10;;;;;;;3.00;1.40;;;10.70;97.00;;;10.35;86.28;96844.06;5028475;28;20442;-82
2023/04/24 03:26:37;;;;;;;1.67;1.40;;;10.60;96.80;;;10.42;86.19;96847.50;5055060;28;20464;-75
2023/04/24 03:29:04;;;;;;;2.10;1.40;;;10.60;97.40;;;10.31;86.54;96853.72;5054036;28;20457;-81
2023/04/24 03:31:34;;;;;;;1.57;1.20;;;10.60;97.60;;;10.38;86.35;96851.69;5046910;28;20815;-78
2023/04/24 03:34:01;;;;;;;3.07;1.63;;;10.60;98.00;;;10.31;86.06;96842.94;5055026;28;20457;-79
2023/04/24 03:36:28;;;;;;;2.20;1.57;;;10.60;97.20;;;10.33;86.45;96857.00;5049227;28;20445;-78
2023/04/24 03:38:55;;;;;;;1.33;1.23;;;10.60;97.40;;;10.29;85.77;96843.16;5038990;28;20461;-80
2023/04/24 03:41:24;;;;;;;2.40;1.77;;;10.60;96.70;;;9.90;86.62;96794.44;5050030;28;20519;-80
2023/04/24 03:43:51;;;;;;;1.87;1.37;;;10.50;98.10;;;10.15;86.85;96850.75;5042228;28;20494;-76
2023/04/24 03:46:19;;;;;;;1.40;1.30;;;10.50;98.10;;;10.10;86.88;96842.56;5046505;28;20464;-82
2023/04/24 03:48:46;;;;;;;1.87;1.60;;;10.40;98.60;;;9.96;87.23;96847.41;5067594;28;20923;-82
2023/04/24 03:51:13;;;;;;;1.53;1.43;;;10.40;97.90;;;10.12;87.10;96853.09;5048912;28;20530;-78
2023/04/24 03:53:41;;;;;;;1.30;1.03;;;10.40;98.50;;;10.06;87.34;96846.78;5039319;28;20454;-77
2023/04/24 03:56:10;;;;;;;1.57;1.33;;;10.30;98.80;;;10.02;86.87;96845.63;5050741;28;20856;-80
2023/04/24 03:58:39;;;;;;;1.40;1.30;;;10.30;98.20;;;10.05;87.13;96855.94;5043720;28;20472;-75
2023/04/24 04:01:06;;;;;;;1.33;1.20;;;10.30;98.90;;;9.72;87.04;96803.50;5041832;28;20484;-78
2023/04/24 04:03:33;;;;;;;1.70;1.13;;;10.40;98.30;;;10.05;87.09;96861.34;5053051;28;20477;-81
2023/04/24 04:06:01;;;;;;;1.10;1.03;;;10.40;97.70;;;10.08;87.00;96866.25;5045734;28;20461;-79
2023/04/24 04:08:28;;;;;;;1.60;1.20;;;10.40;97.70;;;9.96;87.08;96868.19;5045506;28;20542;-82
2023/04/24 04:10:55;;;;;;;2.10;1.23;;;10.40;97.70;;;10.03;87.50;96868.84;5052709;28;20755;-76
2023/04/24 04:13:22;;;;;;;2.90;1.07;;;10.40;98.60;;;10.02;87.31;96867.22;5048196;28;20450;-79
2023/04/24 04:15:51;;;;;;;1.23;1.13;;;10.30;98.50;;;9.86;87.80;96849.94;5045965;28;20535;-81
2023/04/24 04:18:18;;;;;;;1.37;1.10;;;10.30;98.40;;;10.02;88.25;96868.06;5045605;28;20545;-78
2023/04/24 04:20:45;;;;;;;1.60;1.23;;;10.30;99.10;;;9.97;88.57;96865.25;5047608;28;20503;-80
2023/04/24 04:23:12;;;;;;;1.23;1.13;;;10.30;98.90;;;9.94;87.67;96862.22;5050155;28;20461;-77
2023/04/24 04:25:39;;;;;;;2.00;1.17;;;10.30;98.70;;;9.90;87.42;96859.19;5045888;28;20514;-79
2023/04/24 04:28:07;;;;;;;2.00;1.40;;;10.30;98.50;;;9.98;87.37;96866.06;5047103;28;20575;-81
2023/04/24 04:30:34;;;;;;;2.60;1.37;;;10.30;98.80;;;9.90;87.25;96862.69;5036594;28;20470;-81
2023/04/24 04:33:02;;;;;;;2.13;1.33;;;10.30;98.60;;;9.92;87.73;96863.25;5062604;28;20469;-73
2023/04/24 04:35:30;;;;;;;1.70;1.30;;;10.20;99.20;;;10.00;87.62;96858.56;5043696;28;20536;-81
2023/04/24 04:37:58;;;;;;;1.60;1.50;;;10.30;98.90;;;10.05;87.79;96861.34;5044929;28;20958;-79
2023/04/24 04:40:26;;;;;;;1.40;1.30;;;10.30;98.90;;;9.58;87.88;96813.75;5045706;28;20473;-81
2023/04/24 04:42:54;;;;;;;3.30;1.30;;;10.30;98.50;;;9.94;87.20;96860.31;5045140;28;20861;-75
2023/04/24 04:45:21;;;;;;;2.23;1.80;;;10.30;98.60;;;9.86;88.51;96861.53;5047630;28;20449;-70
2023/04/24 04:47:49;;;;;;;3.87;1.60;;;10.30;98.70;;;9.89;88.51;96862.94;5052786;28;20895;-70
2023/04/24 04:50:18;;;;;;;1.80;1.50;;;10.30;98.80;;;10.01;88.11;96863.72;5068611;28;20499;-74
2023/04/24 04:52:45;;;;;;;1.73;1.63;;;10.30;99.40;;;10.00;88.33;96862.06;5065701;28;20461;-73
2023/04/24 04:55:13;;;;;;;1.97;1.60;;;10.40;99.40;;;10.04;87.79;96852.44;5051336;28;21129;-79
2023/04/24 04:57:40;;;;;;;1.70;1.60;;;10.40;98.70;;;10.15;87.54;96860.72;5051388;28;20465;-79
2023/04/24 05:00:11;;;;;;;1.40;1.23;;;10.40;99.20;;;10.14;87.18;96854.50;5043420;28;20484;-77
2023/04/24 05:02:38;;;;;;;1.73;1.33;;;10.40;98.40;;;10.15;87.14;96856.16;5065505;28;20453;-75
2023/04/24 05:05:07;;;;;;;1.70;1.60;;;10.50;98.30;;;10.10;87.77;96869.56;5048931;28;20453;-75
2023/04/24 05:07:36;;;;;;;1.90;1.37;;;10.50;97.80;;;10.13;87.13;96874.47;5047344;28;20462;-75
2023/04/24 05:10:04;;;;;;;2.40;2.00;;;10.50;98.20;;;10.25;87.86;96879.00;5052916;28;20804;-76
2023/04/24 05:12:31;;;;;;;2.57;1.90;;;10.50;98.60;;;10.32;86.96;96880.50;5048425;28;20442;-80
2023/04/24 05:14:58;;;;;;;1.50;1.40;;;10.60;97.50;;;10.26;86.20;96865.25;5047688;28;20472;-77
2023/04/24 05:17:26;;;;;;;3.60;2.17;;;10.70;96.60;;;10.46;85.36;96888.31;5038211;28;20916;-75
2023/04/24 05:19:53;;;;;;;1.97;1.87;;;10.70;96.30;;;10.51;84.81;96891.13;5047753;28;21075;-79
2023/04/24 05:22:21;;;;;;;1.60;1.50;;;10.80;95.50;;;10.61;85.03;96890.47;5057923;28;20447;-76
2023/04/24 05:24:49;;;;;;;2.10;1.90;;;10.90;95.30;;;10.65;83.67;96888.13;5047434;28;20477;-73
2023/04/24 05:27:16;;;;;;;3.23;1.97;;;11.00;94.20;;;10.85;82.74;96896.56;5035573;28;20464;-73
2023/04/24 05:29:44;;;;;;;1.83;1.73;;;11.10;93.70;;;11.01;82.32;96900.34;5045514;28;20547;-74
2023/04/24 05:32:11;;;;;;;2.67;1.73;;;11.20;93.40;;;11.05;81.29;96908.75;5062169;28;20827;-73
2023/04/24 05:34:39;;;;;;;2.03;1.90;;;11.30;92.40;;;11.09;80.14;96903.69;5042221;28;21030;-75
2023/04/24 05:37:08;;;;;;;2.63;2.00;;;11.40;91.70;;;11.01;80.57;96907.63;5043412;28;20461;-73
2023/04/24 05:39:36;;;;;;;1.87;1.77;;;11.30;91.70;;;10.99;80.82;96907.84;5047948;28;20488;-71
2023/04/24 05:42:05;;;;;;;1.50;1.40;;;11.30;91.90;;;11.09;80.07;96911.78;5029615;28;20464;-74
2023/04/24 05:44:32;;;;;;;2.00;1.80;;;11.40;91.60;;;11.28;79.87;96917.78;5028950;28;20458;-74
2023/04/24 05:47:00;;;;;;;2.13;1.93;;;11.50;91.50;;;11.31;79.55;96910.00;5035187;28;20514;-74
2023/04/24 05:49:27;;;;;;;2.30;1.93;;;11.60;91.30;;;11.33;78.67;96917.84;5046280;28;21005;-76
2023/04/24 05:51:54;;;;;;;2.57;2.13;;;11.60;90.90;;;11.56;78.24;96918.72;5068658;28;20842;-73
2023/04/24 05:54:21;;;;;;;1.53;1.43;;;11.80;90.70;;;11.72;77.47;96917.88;5060397;28;20558;-77
2023/04/24 05:56:48;;;;;;;1.77;1.53;;;11.90;90.40;;;11.87;77.08;96917.25;5040214;28;20489;-75
2023/04/24 05:59:18;;;;;;;3.17;2.33;;;12.00;89.90;;;11.60;77.58;96920.69;5048089;28;20461;-73
2023/04/24 06:01:45;;;;;;;2.40;1.43;;;12.00;89.80;;;11.84;77.80;96933.19;5051265;28;20466;-72
2023/04/24 06:04:14;;;;;;;2.00;1.70;;;12.00;90.20;;;11.87;76.99;96917.25;5047080;28;20470;-76
2023/04/24 06:06:41;;;;;;;2.27;1.87;;;12.10;89.90;;;11.76;77.15;96926.31;5038267;28;20495;-75
2023/04/24 06:09:08;;;;;;;1.33;1.23;;;12.10;89.50;;;11.73;77.64;96924.09;5055015;28;20502;-75
2023/04/24 06:11:35;;;;;;;1.60;1.50;;;12.00;89.70;;;11.75;77.50;96917.38;5035989;28;20557;-75
2023/04/24 06:14:02;;;;;;;2.07;1.50;;;12.10;89.90;;;11.84;77.54;96925.06;5037211;28;20535;-72
2023/04/24 06:16:31;;;;;;;2.30;2.10;;;12.10;90.00;;;11.89;76.68;96928.63;5044903;28;20454;-73
2023/04/24 06:18:59;;;;;;;2.97;1.67;;;12.20;89.40;;;12.17;75.99;96928.75;5037294;28;20469;-70
2023/04/24 06:21:27;;;;;;;1.77;1.33;;;12.30;89.20;;;12.27;75.95;96906.38;5032792;28;20487;-74
2023/04/24 06:23:55;;;;;;;2.30;1.90;;;12.40;89.40;;;12.47;75.36;96924.75;5040895;28;20511;-74
2023/04/24 06:26:24;;;;;;;1.50;1.40;;;12.60;88.50;;;12.07;75.29;96934.03;5030982;28;20463;-75
2023/04/24 06:28:53;;;;;;;1.23;1.10;;;12.50;87.30;;;11.92;75.20;96929.22;5035173;28;20944;-74
2023/04/24 06:31:21;;;;;;;1.53;1.30;;;12.30;87.30;;;11.81;75.63;96945.31;5041886;28;20536;-75
2023/04/24 06:33:50;;;;;;;3.00;1.87;;;12.10;87.90;;;11.80;76.16;96938.28;5038491;28;20536;-74
2023/04/24 06:36:18;;;;;;;1.17;1.10;;;12.20;88.00;;;11.44;79.50;96932.31;5037883;28;20464;-75
2023/04/24 06:38:45;;;;;;;3.50;1.10;;;12.00;90.60;;;11.26;81.17;96972.09;5058062;28;20503;-72
2023/04/24 06:41:12;;;;;;;1.50;1.20;;;11.70;91.60;;;11.14;81.66;96957.81;5050347;28;20475;-74
2023/04/24 06:43:40;;;;;;;2.00;1.03;;;11.60;92.10;;;11.28;81.80;96967.25;5049509;28;20454;-73
2023/04/24 06:46:07;;;;;;;1.27;0.90;;;11.60;92.50;;;11.42;80.91;96956.09;5043514;28;20468;-72
2023/04/24 06:48:34;;;;;;;1.03;1.00;;;11.70;92.50;;;11.43;81.49;96961.28;5042811;28;20485;-75
2023/04/24 06:51:03;;;;;;;0.67;0.67;;;11.70;92.80;;;11.33;78.58;96959.25;5043292;28;20450;-74
2023/04/24 06:53:30;;;;;;;1.10;1.00;;;11.70;90.40;;;11.37;78.69;96962.25;5048979;28;20446;-75
2023/04/24 06:55:57;;;;;;;1.30;1.20;;;11.70;90.80;;;11.58;77.62;96957.97;5034368;28;21315;-72
2023/04/24 06:58:26;;;;;;;1.27;1.17;;;11.90;90.40;;;11.84;77.00;96958.34;5046246;28;20534;-75
2023/04/24 07:00:53;;;;;;;1.57;0.97;;;12.10;90.00;;;11.93;77.40;96971.47;5045156;28;20480;-76
2023/04/24 07:03:20;;;;;;;1.00;0.90;;;12.20;90.00;;;12.10;76.17;96966.00;5039365;28;20469;-77
2023/04/24 07:05:47;;;;;;;1.17;1.00;;;12.40;89.40;;;12.33;76.24;96978.47;5048244;28;22477;-75
2023/04/24 07:08:18;;;;;;;1.80;1.13;;;12.50;89.50;;;11.88;75.34;96974.91;5036630;28;20527;-79
2023/04/24 07:10:45;;;;;;;2.10;0.90;;;12.30;87.10;;;12.01;74.04;96968.31;5042130;28;20459;-76
2023/04/24 07:13:13;;;;;;;0.70;0.60;;;12.40;86.50;;;12.10;72.16;96985.78;5046753;28;20460;-76
2023/04/24 07:15:41;;;;;;;0.97;0.70;;;12.50;84.70;;;12.13;71.83;96979.03;5043140;28;20969;-75
2023/04/24 07:18:08;;;;;;;0.97;0.90;;;12.60;84.30;;;12.59;71.63;96979.63;5045441;28;20453;-75
2023/04/24 07:20:35;;;;;;;1.00;0.80;;;12.80;84.90;;;12.82;68.56;96990.44;5038254;28;20508;-74
2023/04/24 07:23:03;;;;;;;1.10;1.00;;;13.00;82.80;;;12.99;67.96;96974.88;5031764;28;20461;-76
2023/04/24 07:25:32;;;;;;;2.93;0.90;;;13.20;82.40;;;13.44;66.57;96997.25;5034205;28;20465;-74
2023/04/24 07:27:59;;;;;;;1.00;0.63;;;13.60;81.40;;;13.38;64.00;96987.41;5033296;28;20798;-76
2023/04/24 07:30:28;;;;;;;2.00;0.93;;;13.60;79.40;;;13.48;63.86;96997.56;5054200;28;20850;-74
2023/04/24 07:32:56;;;;;;;1.20;1.00;;;13.80;78.90;;;13.39;60.71;96994.47;5036702;28;20464;-75
2023/04/24 07:35:25;;;;;;;0.90;0.77;;;13.90;76.10;;;13.02;61.37;96997.94;5039972;28;20477;-76
2023/04/24 07:37:52;;;;;;;1.07;0.73;;;13.60;75.10;;;12.65;60.65;97002.16;5038494;28;20450;-76
2023/04/24 07:40:19;;;;;;;1.13;0.90;;;13.30;74.40;;;12.53;62.78;97009.63;5052040;28;20455;-73
2023/04/24 07:42:48;;;;;;;1.07;1.00;;;13.10;75.90;;;12.80;61.75;97009.66;5053389;28;20464;-74
2023/04/24 07:45:16;;;;;;;1.13;1.00;;;13.10;75.70;;;12.22;62.23;97014.66;5058011;28;20435;-71
2023/04/24 07:47:45;;;;;;;1.33;1.00;;;12.80;74.70;;;11.86;62.15;97004.91;5049849;28;20515;-77
2023/04/24 07:50:14;;;;;;;0.87;0.80;;;12.60;74.70;;;11.99;62.97;97021.88;5043040;28;20583;-76
2023/04/24 07:52:42;;;;;;;1.43;1.27;;;12.50;75.20;;;12.06;62.46;97019.88;5049263;28;20503;-74
2023/04/24 07:55:09;;;;;;;1.30;1.07;;;12.50;75.00;;;12.37;61.97;97025.69;5032819;28;20926;-73
2023/04/24 07:57:37;;;;;;;1.07;0.97;;;12.70;75.50;;;12.75;60.38;97023.97;5042379;28;20449;-74
2023/04/24 08:00:07;;;;;;;1.10;1.00;;;13.00;74.50;;;12.40;62.10;97022.47;5044072;28;20511;-74
2023/04/24 08:02:37;;;;;;;1.40;1.00;;;12.90;74.90;;;12.69;60.57;97018.72;5044992;28;20472;-79
2023/04/24 08:05:05;;;;;;;1.33;1.23;;;13.00;74.10;;;12.91;61.24;97016.00;5046912;28;20473;-75
2023/04/24 08:07:32;;;;;;;1.20;1.10;;;13.10;74.80;;;12.93;58.71;97013.84;5042159;28;20460;-74
2023/04/24 08:10:00;;;;;;;1.20;1.10;;;13.40;72.80;;;13.31;58.09;97008.50;5049399;28;20459;-76
2023/04/24 08:12:27;;;;;;;1.53;1.00;;;13.60;72.40;;;13.03;57.73;97019.38;5046305;28;20532;-78
2023/04/24 08:14:54;;;;;;;1.03;0.93;;;13.50;71.10;;;13.52;55.61;97028.53;5049742;28;20454;-76
2023/04/24 08:17:23;;;;;;;2.20;1.87;;;13.80;69.90;;;13.66;55.29;97009.09;5049458;28;20450;-70
2023/04/24 08:19:51;;;;;;;1.40;1.30;;;14.00;69.20;;;13.51;55.43;97021.47;5046365;28;20519;-76
2023/04/24 08:22:18;;;;;;;1.20;0.97;;;14.00;68.10;;;13.55;55.35;97030.72;5039555;28;20478;-73
2023/04/24 08:24:45;;;;;;;1.27;1.17;;;14.00;68.10;;;13.41;54.83;97026.75;5049003;28;20468;-73
2023/04/24 08:27:12;;;;;;;1.23;1.13;;;13.80;67.10;;;13.05;55.77;97043.53;5042824;28;20546;-75
2023/04/24 08:29:40;;;;;;;1.70;1.23;;;13.70;67.50;;;12.75;56.81;97056.47;5041966;28;20461;-73
2023/04/24 08:32:07;;;;;;;1.10;0.80;;;13.40;68.00;;;12.53;57.91;97053.78;5046069;28;20449;-74
2023/04/24 08:34:35;;;;;;;1.70;1.40;;;13.00;68.50;;;12.58;57.74;97066.56;5041076;28;20457;-72
2023/04/24 08:37:04;;;;;;;1.23;1.13;;;13.00;69.00;;;12.07;57.47;97061.28;5049508;28;20450;-74
2023/04/24 08:39:31;;;;;;;1.70;1.37;;;12.70;67.60;;;12.31;57.50;97051.06;5049719;28;20469;-77
2023/04/24 08:42:05;;;;;;;1.47;1.33;;;12.70;68.40;;;13.21;55.61;97055.34;5046514;28;20982;-74
2023/04/24 08:44:33;;;;;;;1.33;1.20;;;13.30;68.70;;;13.67;54.97;97054.97;5036932;28;20461;-73
2023/04/24 08:47:01;;;;;;;2.37;1.97;;;13.80;67.80;;;13.74;53.79;97062.91;5044808;28;20458;-74
2023/04/24 08:49:30;;;;;;;1.80;1.60;;;14.10;66.50;;;13.75;53.37;97064.53;5051698;28;20459;-75
2023/04/24 08:51:59;;;;;;;1.73;1.50;;;14.10;65.30;;;13.71;53.31;97049.81;5041051;28;20455;-73
2023/04/24 08:54:26;;;;;;;1.40;1.30;;;14.10;64.90;;;14.24;53.23;97062.69;5058154;28;20546;-74
2023/04/24 08:56:57;;;;;;;1.77;1.20;;;14.40;65.70;;;14.57;51.17;97060.69;5044410;28;20544;-75
2023/04/24 08:59:24;;;;;;;2.23;1.90;;;14.80;64.00;;;14.13;52.66;97050.97;5055398;28;20525;-74
2023/04/24 09:01:53;;;;;;;1.70;1.60;;;14.90;63.90;;;14.27;52.41;97060.28;5067815;28;21241;-73
2023/04/24 09:04:21;;;;;;;1.80;1.70;;;14.80;63.30;;;13.83;53.85;97055.91;5052423;28;20522;-73
2023/04/24 09:06:50;;;;;;;1.77;1.67;;;14.40;64.00;;;13.13;54.76;97058.53;5042430;28;20463;-74
2023/04/24 09:09:18;;;;;;;2.20;1.80;;;13.90;63.80;;;13.56;54.10;97047.81;5041992;28;20498;-74
2023/04/24 09:11:46;;;;;;;1.80;1.50;;;13.90;64.30;;;13.86;53.11;97060.81;5041178;28;20555;-76
2023/04/24 09:14:14;;;;;;;3.10;1.80;;;14.10;63.90;;;13.82;53.37;97056.97;5052112;28;20474;-73
2023/04/24 09:16:42;;;;;;;2.17;1.90;;;14.20;63.90;;;13.60;53.27;97036.19;5038491;28;20519;-74
2023/04/24 09:19:09;;;;;;;1.80;1.70;;;14.20;63.60;;;13.24;53.98;97052.09;5038307;28;20456;-74
2023/04/24 09:21:37;;;;;;;4.00;2.13;;;13.80;63.40;;;12.97;54.53;97027.72;5036350;28;20968;-73
2023/04/24 09:24:09;;;;;;;1.63;1.47;;;13.60;63.80;;;13.54;54.03;97042.66;5039094;28;20450;-73
2023/04/24 09:26:38;;;;;;;1.47;1.37;;;13.90;64.20;;;14.07;53.34;97036.53;5059669;28;20536;-74
2023/04/24 09:29:05;;;;;;;1.83;1.60;;;14.20;64.40;;;14.23;52.54;97023.84;5048602;28;20464;-75
2023/04/24 09:31:32;;;;;;;1.50;1.40;;;14.60;63.50;;;13.79;52.75;97040.38;5047308;28;20466;-73
2023/04/24 09:34:03;;;;;;;1.43;1.33;;;14.30;62.40;;;13.60;53.01;97033.47;5041045;28;20465;-76
2023/04/24 09:36:33;;;;;;;2.10;1.90;;;14.10;62.60;;;13.50;53.08;97032.59;5043709;28;20942;-73
2023/04/24 09:39:02;;;;;;;1.50;1.40;;;13.90;62.50;;;13.80;52.80;97037.41;5043587;28;21113;-74
2023/04/24 09:41:30;;;;;;;1.70;1.60;;;14.10;62.90;;;13.91;52.18;97040.22;5046455;28;20932;-74
2023/04/24 09:44:12;;;;;;;1.77;1.67;;;14.30;62.00;;;14.05;52.78;97040.56;5039276;28;20531;-75
2023/04/24 09:46:40;;;;;;;1.77;1.67;;;14.30;62.50;;;14.58;50.20;97049.56;5041208;28;20939;-74
2023/04/24 09:49:13;;;;;;;2.80;1.50;;;14.80;61.40;;;14.33;50.34;97028.53;5046409;28;20519;-76
2023/04/24 09:51:40;;;;;;;1.77;1.67;;;14.70;60.80;;;13.87;50.59;97021.72;5044989;28;20448;-75
2023/04/24 09:54:16;;;;;;;1.07;1.00;;;14.50;59.80;;;14.23;49.81;97039.31;5032327;28;20454;-75
2023/04/24 09:56:46;;;;;;;1.27;1.03;;;14.60;59.70;;;14.52;49.51;97039.72;5040823;28;20485;-74
2023/04/24 09:59:17;;;;;;;0.90;0.90;;;14.80;59.20;;;14.19;47.43;97049.09;5043792;28;20450;-75
2023/04/24 10:01:44;;;;;;;1.13;1.03;;;14.70;56.80;;;14.07;47.02;97041.94;5043318;28;20481;-75
2023/04/24 10:04:20;;;;;;;0.80;0.80;;;14.50;55.90;;;14.21;46.76;97047.72;5043837;28;20448;-75
2023/04/24 10:06:49;;;;;;;0.90;0.73;;;14.60;55.80;;;14.26;46.48;97038.78;5041815;28;20451;-75
2023/04/24 10:09:17;;;;;;;1.27;1.17;;;14.70;55.50;;;14.20;46.50;97046.09;5041049;28;20466;-76
2023/04/24 10:11:46;;;;;;;2.10;1.30;;;14.70;55.10;;;14.27;46.62;97051.28;5047059;28;20501;-74
2023/04/24 10:14:18;;;;;;;1.83;1.40;;;14.80;55.40;;;14.32;46.82;97059.47;5047844;28;20821;-72
2023/04/24 10:16:47;;;;;;;1.40;1.30;;;14.70;55.70;;;14.16;44.47;97067.53;5053027;28;20554;-75
2023/04/24 10:19:16;;;;;;;0.80;0.80;;;14.70;53.00;;;14.01;43.55;97048.41;5052662;28;20456;-74
2023/04/24 10:21:46;;;;;;;1.00;0.80;;;14.60;51.90;;;14.22;44.57;97045.84;5050745;28;20481;-74
2023/04/24 10:24:14;;;;;;;0.83;0.60;;;14.60;52.60;;;14.84;43.42;97046.16;5060842;28;20451;-75